createdAt,value
2019-05-30T00:01:34.906Z,10.92
2019-05-30T00:04:05.257Z,10.92
2019-05-30T00:06:35.655Z,10.89
2019-05-30T00:09:09.499Z,10.91
2019-05-30T00:11:39.689Z,10.77
2019-05-30T00:14:11.267Z,10.83
2019-05-30T00:16:42.385Z,10.80
2019-05-30T00:19:12.536Z,10.81
2019-05-30T00:21:42.777Z,10.75
2019-05-30T00:24:12.939Z,10.74
2019-05-30T00:26:43.272Z,10.73
2019-05-30T00:29:13.573Z,10.73
2019-05-30T00:31:43.929Z,10.73
2019-05-30T00:34:14.195Z,10.71
2019-05-30T00:36:44.510Z,10.67
2019-05-30T00:39:14.843Z,10.63
2019-05-30T00:41:45.081Z,10.64
2019-05-30T00:44:15.410Z,10.61
2019-05-30T00:46:45.589Z,10.58
2019-05-30T00:49:15.797Z,10.57
2019-05-30T00:51:47.618Z,10.58
2019-05-30T00:54:17.825Z,10.49
2019-05-30T00:56:47.948Z,10.52
2019-05-30T00:59:18.125Z,10.46
2019-05-30T01:01:48.310Z,10.46
2019-05-30T01:04:18.476Z,10.47
2019-05-30T01:06:48.651Z,10.45
2019-05-30T01:09:18.823Z,10.43
2019-05-30T01:11:49.004Z,10.37
2019-05-30T01:14:19.348Z,10.38
2019-05-30T01:16:49.593Z,10.35
2019-05-30T01:19:19.873Z,10.28
2019-05-30T01:21:51.632Z,10.23
2019-05-30T01:24:21.822Z,10.24
2019-05-30T01:26:52.098Z,10.24
2019-05-30T01:29:22.273Z,10.24
2019-05-30T01:31:52.497Z,10.19
2019-05-30T01:34:22.688Z,10.19
2019-05-30T01:36:52.987Z,10.18
2019-05-30T01:39:23.198Z,10.08
2019-05-30T01:41:53.371Z,10.12
2019-05-30T01:44:23.602Z,10.12
2019-05-30T01:46:53.746Z,10.12
2019-05-30T01:49:23.937Z,10.14
2019-05-30T01:51:54.179Z,10.16
2019-05-30T01:54:24.352Z,10.11
2019-05-30T01:56:55.298Z,10.13
2019-05-30T01:59:26.602Z,10.16
2019-05-30T02:01:56.760Z,10.17
2019-05-30T02:04:26.922Z,10.18
2019-05-30T02:06:57.108Z,10.16
2019-05-30T02:09:27.290Z,10.19
2019-05-30T02:11:57.514Z,10.18
2019-05-30T02:14:27.711Z,10.21
2019-05-30T02:16:57.939Z,10.19
2019-05-30T02:19:28.147Z,10.23
2019-05-30T02:21:59.622Z,10.24
2019-05-30T02:24:29.892Z,10.23
2019-05-30T02:27:00.102Z,10.23
2019-05-30T02:29:30.295Z,10.25
2019-05-30T02:32:01.040Z,10.26
2019-05-30T02:34:32.589Z,10.26
2019-05-30T02:37:03.307Z,10.26
2019-05-30T02:39:34.739Z,10.28
2019-05-30T02:42:07.340Z,10.27
2019-05-30T02:44:37.741Z,10.29
2019-05-30T02:47:09.563Z,10.27
2019-05-30T02:49:40.008Z,10.26
2019-05-30T02:52:10.817Z,10.27
2019-05-30T02:54:41.606Z,10.28
2019-05-30T02:57:12.551Z,10.26
2019-05-30T02:59:43.981Z,10.29
2019-05-30T03:02:17.219Z,10.28
2019-05-30T03:04:46.138Z,10.30
2019-05-30T03:07:16.414Z,10.29
2019-05-30T03:09:46.727Z,10.30
2019-05-30T03:12:16.888Z,10.33
2019-05-30T03:14:47.128Z,10.32
2019-05-30T03:17:17.295Z,10.32
2019-05-30T03:19:47.594Z,10.34
2019-05-30T03:22:17.795Z,10.34
2019-05-30T03:24:48.018Z,10.38
2019-05-30T03:27:18.249Z,10.40
2019-05-30T03:29:48.492Z,10.39
2019-05-30T03:34:52.270Z,10.42
2019-05-30T03:37:28.797Z,10.45
2019-05-30T03:39:54.356Z,10.49
2019-05-30T03:42:24.555Z,10.53
2019-05-30T03:44:54.759Z,10.56
2019-05-30T03:47:27.373Z,10.62
2019-05-30T03:49:58.051Z,10.68
2019-05-30T03:52:28.933Z,10.70
2019-05-30T03:55:00.389Z,10.77
2019-05-30T03:57:34.988Z,10.82
2019-05-30T04:00:11.121Z,10.91
2019-05-30T04:02:57.381Z,10.97
2019-05-30T04:05:23.568Z,11.01
2019-05-30T04:07:56.554Z,11.10
2019-05-30T04:10:30.690Z,11.11
2019-05-30T04:13:40.160Z,11.18
2019-05-30T04:16:11.108Z,11.24
2019-05-30T04:18:41.679Z,11.23
2019-05-30T04:21:14.169Z,11.29
2019-05-30T04:23:43.948Z,11.40
2019-05-30T04:26:15.730Z,11.46
2019-05-30T04:28:46.153Z,11.49
2019-05-30T04:31:17.192Z,11.48
2019-05-30T04:33:48.345Z,11.49
2019-05-30T04:36:19.306Z,11.57
2019-05-30T04:38:53.705Z,11.59
2019-05-30T04:41:25.160Z,11.65
2019-05-30T04:43:58.367Z,11.72
2019-05-30T04:46:28.590Z,11.79
2019-05-30T04:48:58.753Z,11.93
2019-05-30T04:51:28.931Z,12.00
2019-05-30T04:53:59.181Z,12.16
2019-05-30T04:56:31.198Z,12.32
2019-05-30T04:59:07.174Z,12.37
2019-05-30T05:01:43.524Z,12.53
2019-05-30T05:04:15.376Z,12.66
2019-05-30T05:06:45.786Z,12.75
2019-05-30T05:09:23.454Z,12.85
2019-05-30T05:11:56.529Z,12.90
2019-05-30T05:14:33.152Z,12.95
2019-05-30T05:17:08.591Z,12.99
2019-05-30T05:19:42.150Z,13.03
2019-05-30T05:22:14.979Z,13.08
2019-05-30T05:24:47.016Z,13.14
2019-05-30T05:27:21.803Z,13.26
2019-05-30T05:29:52.856Z,13.35
2019-05-30T05:32:25.688Z,13.46
2019-05-30T05:34:55.909Z,13.55
2019-05-30T05:37:30.430Z,13.66
2019-05-30T05:40:02.244Z,13.75
2019-05-30T05:42:33.377Z,13.85
2019-05-30T05:45:04.745Z,13.99
2019-05-30T05:47:35.464Z,14.16
2019-05-30T05:50:06.456Z,14.16
2019-05-30T05:52:39.010Z,14.20
2019-05-30T05:55:10.609Z,14.26
2019-05-30T05:57:40.868Z,14.39
2019-05-30T06:00:11.423Z,14.44
2019-05-30T06:02:44.226Z,14.62
2019-05-30T06:05:15.934Z,14.65
2019-05-30T06:07:47.469Z,14.69
2019-05-30T06:10:21.377Z,14.82
2019-05-30T06:12:56.226Z,14.91
2019-05-30T06:15:28.992Z,14.97
2019-05-30T06:17:59.390Z,15.09
2019-05-30T06:20:31.075Z,15.26
2019-05-30T06:23:01.272Z,15.37
2019-05-30T06:25:33.059Z,15.49
2019-05-30T06:28:03.453Z,15.50
2019-05-30T06:30:38.531Z,15.56
2019-05-30T06:33:12.428Z,15.72
2019-05-30T06:35:42.631Z,15.63
2019-05-30T06:38:13.051Z,15.74
2019-05-30T06:40:43.334Z,15.98
2019-05-30T06:43:13.562Z,16.09
2019-05-30T06:45:50.479Z,16.31
2019-05-30T06:48:32.479Z,16.60
2019-05-30T06:51:02.709Z,16.81
2019-05-30T06:53:34.537Z,16.94
2019-05-30T06:56:04.888Z,16.87
2019-05-30T06:58:47.928Z,16.72
2019-05-30T07:01:10.217Z,16.41
2019-05-30T07:03:40.607Z,16.41
2019-05-30T07:06:12.953Z,16.34
2019-05-30T07:08:44.962Z,16.40
2019-05-30T07:11:18.816Z,16.60
2019-05-30T07:13:48.985Z,16.76
2019-05-30T07:16:19.205Z,16.96
2019-05-30T07:18:49.456Z,17.22
2019-05-30T07:21:23.556Z,17.39
2019-05-30T07:24:00.346Z,17.45
2019-05-30T07:26:30.558Z,17.65
2019-05-30T07:29:02.399Z,17.87
2019-05-30T07:31:32.611Z,17.82
2019-05-30T07:34:02.860Z,17.80
2019-05-30T07:36:54.359Z,17.79
2019-05-30T07:39:27.166Z,17.98
2019-05-30T07:42:06.164Z,17.97
2019-05-30T07:44:30.761Z,17.94
2019-05-30T07:47:01.067Z,18.11
2019-05-30T07:49:34.628Z,18.12
2019-05-30T07:52:06.777Z,18.15
2019-05-30T07:54:37.199Z,18.12
2019-05-30T07:57:07.457Z,18.21
2019-05-30T07:59:38.719Z,18.54
2019-05-30T08:02:10.530Z,18.74
2019-05-30T08:04:46.779Z,19.01
2019-05-30T08:07:15.207Z,19.40
2019-05-30T08:09:45.481Z,19.46
2019-05-30T08:12:15.755Z,19.51
2019-05-30T08:14:46.016Z,19.28
2019-05-30T08:17:16.218Z,19.08
2019-05-30T08:19:46.534Z,18.89
2019-05-30T08:22:16.718Z,18.72
2019-05-30T08:24:46.937Z,18.63
2019-05-30T08:27:17.138Z,18.78
2019-05-30T08:29:47.368Z,18.70
2019-05-30T08:32:20.433Z,18.78
2019-05-30T08:34:50.710Z,18.98
2019-05-30T08:37:20.974Z,18.92
2019-05-30T08:39:54.721Z,19.00
2019-05-30T08:42:29.528Z,19.22
2019-05-30T08:45:04.706Z,19.20
2019-05-30T08:47:36.034Z,19.42
2019-05-30T08:50:08.629Z,19.74
2019-05-30T08:52:38.810Z,20.02
2019-05-30T08:55:11.345Z,20.12
2019-05-30T08:57:41.596Z,20.34
2019-05-30T09:00:12.457Z,20.63
2019-05-30T09:02:42.990Z,20.73
2019-05-30T09:05:13.348Z,20.52
2019-05-30T09:07:44.620Z,20.38
2019-05-30T09:10:15.413Z,20.22
2019-05-30T09:12:49.385Z,20.20
2019-05-30T09:15:21.591Z,20.27
2019-05-30T09:17:49.482Z,20.30
2019-05-30T09:20:19.805Z,20.51
2019-05-30T09:22:49.963Z,20.45
2019-05-30T09:25:22.806Z,20.58
2019-05-30T09:27:53.031Z,20.66
2019-05-30T09:30:23.622Z,20.76
2019-05-30T09:32:53.842Z,21.13
2019-05-30T09:35:24.945Z,20.99
2019-05-30T09:37:55.124Z,21.05
2019-05-30T09:40:25.654Z,21.53
2019-05-30T09:42:55.888Z,21.81
2019-05-30T09:45:28.034Z,22.10
2019-05-30T09:47:59.661Z,22.10
2019-05-30T09:50:30.030Z,22.13
2019-05-30T09:53:00.264Z,22.10
2019-05-30T09:55:31.376Z,21.84
2019-05-30T09:58:01.726Z,21.93
2019-05-30T10:00:34.065Z,21.91
2019-05-30T10:03:04.475Z,21.79
2019-05-30T10:05:34.711Z,21.64
2019-05-30T10:08:05.098Z,21.59
2019-05-30T10:10:35.325Z,21.45
2019-05-30T10:13:05.757Z,21.13
2019-05-30T10:15:36.040Z,20.86
2019-05-30T10:18:06.174Z,20.36
2019-05-30T10:20:36.344Z,20.09
2019-05-30T10:23:06.526Z,20.13
2019-05-30T10:25:36.738Z,19.95
2019-05-30T10:28:07.062Z,19.95
2019-05-30T10:30:37.268Z,19.99
2019-05-30T10:33:07.422Z,19.82
2019-05-30T10:35:37.654Z,19.73
2019-05-30T10:38:07.958Z,19.44
2019-05-30T10:40:40.190Z,19.40
2019-05-30T10:43:10.386Z,19.51
2019-05-30T10:45:40.660Z,19.33
2019-05-30T10:48:10.998Z,19.38
2019-05-30T10:50:41.231Z,19.41
2019-05-30T10:53:11.440Z,19.57
2019-05-30T10:55:41.662Z,19.60
2019-05-30T10:58:19.377Z,19.69
2019-05-30T11:00:55.468Z,19.88
2019-05-30T11:03:27.730Z,20.18
2019-05-30T11:06:23.500Z,20.14
2019-05-30T11:08:56.914Z,20.29
2019-05-30T11:11:27.382Z,20.34
2019-05-30T11:13:57.549Z,20.32
2019-05-30T11:16:27.834Z,20.26
2019-05-30T11:18:58.060Z,20.17
2019-05-30T11:21:28.501Z,19.95
2019-05-30T11:23:58.790Z,19.78
2019-05-30T11:26:29.085Z,19.84
2019-05-30T11:28:59.506Z,19.98
2019-05-30T11:31:29.827Z,19.98
2019-05-30T11:34:00.009Z,19.98
2019-05-30T11:36:30.308Z,19.93
2019-05-30T11:39:00.588Z,20.00
2019-05-30T11:41:31.253Z,20.13
2019-05-30T11:44:04.127Z,20.42
2019-05-30T11:46:33.342Z,20.63
2019-05-30T11:49:03.578Z,21.10
2019-05-30T11:51:33.792Z,21.47
2019-05-30T11:54:04.140Z,21.87
2019-05-30T11:56:34.358Z,22.37
2019-05-30T11:59:04.524Z,22.31
2019-05-30T12:01:34.738Z,21.88
2019-05-30T12:04:04.934Z,22.11
2019-05-30T12:06:35.120Z,22.21
2019-05-30T12:09:07.515Z,22.37
2019-05-30T12:11:37.708Z,22.24
2019-05-30T12:14:07.892Z,22.58
2019-05-30T12:16:38.169Z,22.03
2019-05-30T12:19:08.311Z,21.97
2019-05-30T12:21:38.484Z,21.58
2019-05-30T12:24:08.765Z,21.56
2019-05-30T12:26:39.034Z,21.29
2019-05-30T12:29:09.300Z,21.25
2019-05-30T12:31:39.594Z,21.17
2019-05-30T12:34:10.073Z,21.07
2019-05-30T12:36:40.277Z,20.95
2019-05-30T12:39:10.508Z,20.95
2019-05-30T12:41:40.745Z,20.95
2019-05-30T12:44:10.958Z,21.21
2019-05-30T12:46:41.152Z,21.23
2019-05-30T12:49:11.456Z,21.21
2019-05-30T12:51:41.734Z,21.05
2019-05-30T12:54:11.931Z,21.06
2019-05-30T12:56:42.206Z,21.12
2019-05-30T12:59:12.421Z,20.96
2019-05-30T13:01:42.589Z,20.91
2019-05-30T13:04:12.770Z,20.86
2019-05-30T13:06:42.949Z,20.81
2019-05-30T13:09:13.126Z,20.54
2019-05-30T13:11:43.307Z,20.45
2019-05-30T13:14:13.482Z,20.36
2019-05-30T13:16:44.558Z,20.18
2019-05-30T13:19:14.755Z,20.30
2019-05-30T13:21:44.916Z,20.08
2019-05-30T13:24:15.063Z,20.06
2019-05-30T13:26:45.271Z,20.39
2019-05-30T13:29:15.605Z,20.43
2019-05-30T13:31:45.709Z,20.62
2019-05-30T13:34:15.941Z,20.77
2019-05-30T13:36:46.565Z,20.58
2019-05-30T13:39:17.816Z,20.63
2019-05-30T13:41:48.111Z,20.82
2019-05-30T13:44:18.327Z,20.67
2019-05-30T13:46:48.553Z,20.92
2019-05-30T13:49:18.856Z,20.89
2019-05-30T13:51:49.104Z,20.82
2019-05-30T13:54:19.312Z,20.75
2019-05-30T13:56:52.308Z,20.85
2019-05-30T13:59:22.620Z,20.95
2019-05-30T14:01:52.794Z,21.07
2019-05-30T14:04:22.969Z,21.02
2019-05-30T14:06:53.230Z,21.11
2019-05-30T14:09:24.574Z,21.21
2019-05-30T14:11:55.035Z,21.43
2019-05-30T14:14:25.274Z,21.53
2019-05-30T14:16:55.441Z,21.72
2019-05-30T14:19:25.669Z,21.42
2019-05-30T14:21:56.956Z,21.30
2019-05-30T14:24:29.385Z,21.08
2019-05-30T14:26:59.573Z,20.90
2019-05-30T14:29:29.703Z,20.91
2019-05-30T14:32:00.035Z,20.94
2019-05-30T14:34:30.281Z,20.77
2019-05-30T14:37:00.604Z,20.71
2019-05-30T14:39:30.935Z,20.70
2019-05-30T14:42:01.188Z,20.65
2019-05-30T14:44:31.316Z,20.67
2019-05-30T14:47:01.466Z,20.72
2019-05-30T14:49:31.615Z,20.56
2019-05-30T14:52:01.883Z,20.52
2019-05-30T14:54:32.318Z,20.41
2019-05-30T14:57:06.843Z,20.29
2019-05-30T14:59:37.079Z,20.17
2019-05-30T15:02:07.353Z,20.27
2019-05-30T15:04:37.596Z,20.41
2019-05-30T15:07:09.316Z,20.64
2019-05-30T15:09:42.465Z,20.35
2019-05-30T15:12:12.776Z,20.42
2019-05-30T15:14:43.001Z,20.40
2019-05-30T15:17:14.296Z,20.62
2019-05-30T15:22:16.811Z,20.69
2019-05-30T15:24:46.912Z,20.93
2019-05-30T15:27:20.607Z,21.02
2019-05-30T15:29:49.173Z,20.97
2019-05-30T15:32:19.431Z,21.09
2019-05-30T15:34:49.709Z,21.35
2019-05-30T15:37:19.937Z,21.26
2019-05-30T15:39:50.132Z,21.00
2019-05-30T15:42:20.360Z,21.11
2019-05-30T15:44:50.560Z,21.23
2019-05-30T15:47:20.781Z,21.28
2019-05-30T15:49:52.395Z,21.03
2019-05-30T15:52:24.142Z,20.81
2019-05-30T15:54:54.729Z,20.91
2019-05-30T15:57:24.907Z,20.76
2019-05-30T15:59:55.145Z,20.76
2019-05-30T16:02:26.029Z,20.60
2019-05-30T16:04:56.313Z,20.59
2019-05-30T16:07:26.561Z,20.29
2019-05-30T16:09:57.725Z,20.28
2019-05-30T16:12:27.916Z,20.17
2019-05-30T16:14:58.121Z,20.05
2019-05-30T16:17:28.397Z,19.84
2019-05-30T16:19:58.676Z,19.78
2019-05-30T16:22:28.879Z,19.79
2019-05-30T16:24:59.191Z,19.79
2019-05-30T16:27:31.292Z,19.90
2019-05-30T16:30:02.002Z,20.01
2019-05-30T16:32:34.287Z,20.05
2019-05-30T16:35:04.665Z,19.93
2019-05-30T16:37:34.919Z,20.05
2019-05-30T16:40:07.221Z,20.09
2019-05-30T16:42:37.380Z,20.07
2019-05-30T16:45:08.557Z,19.96
2019-05-30T16:47:40.241Z,19.75
2019-05-30T16:50:13.073Z,19.72
2019-05-30T16:52:44.563Z,19.54
2019-05-30T16:55:15.209Z,19.48
2019-05-30T16:57:45.531Z,19.56
2019-05-30T17:00:17.672Z,19.61
2019-05-30T17:02:47.846Z,19.68
2019-05-30T17:05:18.053Z,19.43
2019-05-30T17:07:48.732Z,19.39
2019-05-30T17:10:27.494Z,19.28
2019-05-30T17:12:51.140Z,19.26
2019-05-30T17:15:22.024Z,19.37
2019-05-30T17:17:52.270Z,19.35
2019-05-30T17:20:22.604Z,19.40
2019-05-30T17:22:52.825Z,19.54
2019-05-30T17:25:23.209Z,19.52
2019-05-30T17:27:53.438Z,19.70
2019-05-30T17:30:23.838Z,19.79
2019-05-30T17:32:54.031Z,19.83
2019-05-30T17:35:24.269Z,19.79
2019-05-30T17:37:54.508Z,19.64
2019-05-30T17:40:39.338Z,19.78
2019-05-30T17:42:56.754Z,19.79
2019-05-30T17:45:27.312Z,19.80
2019-05-30T17:48:07.540Z,19.78
2019-05-30T17:50:30.059Z,19.74
2019-05-30T17:53:01.718Z,19.43
2019-05-30T17:55:31.942Z,19.48
2019-05-30T17:58:02.250Z,19.50
2019-05-30T18:00:32.419Z,19.37
2019-05-30T18:03:02.643Z,19.34
2019-05-30T18:05:32.897Z,19.25
2019-05-30T18:08:03.154Z,19.37
2019-05-30T18:10:33.368Z,19.42
2019-05-30T18:13:03.590Z,19.43
2019-05-30T18:15:33.751Z,19.40
2019-05-30T18:18:04.082Z,19.36
2019-05-30T18:20:47.663Z,19.37
2019-05-30T18:23:06.887Z,19.37
2019-05-30T18:25:37.154Z,19.29
2019-05-30T18:28:07.405Z,19.28
2019-05-30T18:30:42.614Z,19.25
2019-05-30T18:33:13.317Z,19.22
2019-05-30T18:35:43.585Z,19.26
2019-05-30T18:38:13.893Z,19.23
2019-05-30T18:40:44.237Z,19.18
2019-05-30T18:43:14.537Z,18.95
2019-05-30T18:45:46.497Z,18.88
2019-05-30T18:48:17.651Z,18.76
2019-05-30T18:50:47.865Z,18.85
2019-05-30T18:53:19.003Z,18.88
2019-05-30T18:55:49.323Z,18.83
2019-05-30T18:58:19.671Z,18.67
2019-05-30T19:00:50.185Z,18.63
2019-05-30T19:03:20.472Z,18.51
2019-05-30T19:05:50.782Z,18.55
2019-05-30T19:08:21.156Z,18.59
2019-05-30T19:10:51.406Z,18.53
2019-05-30T19:13:22.058Z,18.59
2019-05-30T19:15:52.317Z,18.54
2019-05-30T19:18:22.484Z,18.64
2019-05-30T19:20:52.685Z,18.64
2019-05-30T19:23:23.040Z,18.56
2019-05-30T19:25:53.273Z,18.43
2019-05-30T19:28:24.405Z,18.51
2019-05-30T19:30:54.673Z,18.43
2019-05-30T19:33:24.922Z,18.44
2019-05-30T19:35:55.207Z,18.41
2019-05-30T19:38:25.390Z,18.44
2019-05-30T19:40:55.653Z,18.35
2019-05-30T19:43:25.882Z,18.34
2019-05-30T19:45:56.127Z,18.31
2019-05-30T19:48:26.315Z,18.22
2019-05-30T19:50:57.468Z,18.07
2019-05-30T19:53:28.771Z,18.02
2019-05-30T19:55:59.106Z,17.80
2019-05-30T19:58:29.579Z,17.81
2019-05-30T20:01:00.943Z,17.77
2019-05-30T20:03:40.223Z,17.61
2019-05-30T20:06:03.214Z,17.56
2019-05-30T20:08:46.976Z,17.43
2019-05-30T20:11:05.452Z,17.48
2019-05-30T20:13:37.082Z,17.42
2019-05-30T20:16:07.414Z,17.41
2019-05-30T20:18:37.763Z,17.35
2019-05-30T20:21:08.007Z,17.31
2019-05-30T20:23:50.398Z,17.26
2019-05-30T20:26:13.391Z,17.21
2019-05-30T20:28:43.652Z,17.15
2019-05-30T20:31:13.925Z,17.10
2019-05-30T20:33:44.201Z,16.98
2019-05-30T20:36:14.465Z,17.00
2019-05-30T20:38:44.777Z,16.96
2019-05-30T20:41:16.015Z,16.92
2019-05-30T20:43:47.393Z,16.88
2019-05-30T20:46:23.155Z,16.84
2019-05-30T20:48:49.871Z,16.70
2019-05-30T20:51:21.416Z,16.65
2019-05-30T20:53:54.789Z,16.68
2019-05-30T20:56:24.002Z,16.66
2019-05-30T20:58:54.181Z,16.63
2019-05-30T21:01:24.460Z,16.62
2019-05-30T21:03:54.845Z,16.61
2019-05-30T21:06:25.710Z,16.64
2019-05-30T21:08:57.181Z,16.65
2019-05-30T21:11:27.731Z,16.67
2019-05-30T21:13:57.927Z,16.70
2019-05-30T21:16:30.847Z,16.55
2019-05-30T21:19:02.344Z,16.67
2019-05-30T21:21:32.534Z,16.62
2019-05-30T21:24:02.754Z,16.58
2019-05-30T21:26:32.942Z,16.55
2019-05-30T21:29:03.406Z,16.53
2019-05-30T21:31:33.599Z,16.47
2019-05-30T21:34:03.886Z,16.40
2019-05-30T21:36:34.096Z,16.39
2019-05-30T21:39:05.330Z,16.36
2019-05-30T21:41:35.620Z,16.31
2019-05-30T21:44:05.822Z,16.23
2019-05-30T21:46:38.618Z,16.20
2019-05-30T21:49:09.098Z,16.23
2019-05-30T21:51:39.335Z,16.20
2019-05-30T21:54:09.518Z,15.95
2019-05-30T21:56:39.982Z,16.09
2019-05-30T21:59:10.252Z,16.08
2019-05-30T22:01:40.811Z,16.20
2019-05-30T22:04:11.018Z,16.29
2019-05-30T22:06:41.289Z,16.32
2019-05-30T22:09:12.079Z,16.38
2019-05-30T22:11:43.627Z,16.40
2019-05-30T22:14:13.916Z,16.42
2019-05-30T22:16:44.144Z,16.41
2019-05-30T22:19:14.339Z,16.41
2019-05-30T22:21:44.656Z,16.43
2019-05-30T22:24:15.105Z,16.47
2019-05-30T22:26:46.333Z,16.52
2019-05-30T22:29:16.560Z,16.54
2019-05-30T22:31:46.776Z,16.57
2019-05-30T22:34:17.022Z,16.59
2019-05-30T22:36:48.941Z,16.62
2019-05-30T22:39:19.215Z,16.65
2019-05-30T22:41:50.004Z,16.61
2019-05-30T22:44:20.282Z,16.56
2019-05-30T22:46:50.504Z,16.51
2019-05-30T22:49:20.694Z,16.45
2019-05-30T22:51:51.137Z,16.45
2019-05-30T22:54:21.500Z,16.42
2019-05-30T22:56:51.702Z,16.33
2019-05-30T22:59:21.918Z,16.33
2019-05-30T23:01:53.539Z,16.34
2019-05-30T23:04:23.824Z,16.33
2019-05-30T23:06:54.556Z,16.35
2019-05-30T23:09:24.826Z,16.40
2019-05-30T23:11:55.963Z,16.42
2019-05-30T23:14:26.133Z,16.47
2019-05-30T23:16:56.493Z,16.47
2019-05-30T23:19:26.715Z,16.52
2019-05-30T23:21:57.912Z,16.53
2019-05-30T23:24:28.113Z,16.53
2019-05-30T23:26:58.309Z,16.57
2019-05-30T23:29:28.466Z,16.60
2019-05-30T23:31:58.691Z,16.61
2019-05-30T23:34:29.006Z,16.63
2019-05-30T23:36:59.215Z,16.67
2019-05-30T23:39:29.424Z,16.68
2019-05-30T23:41:59.677Z,16.70
2019-05-30T23:44:29.858Z,16.73
2019-05-30T23:47:00.078Z,16.75
2019-05-30T23:49:30.266Z,16.75
2019-05-30T23:52:00.519Z,16.74
2019-05-30T23:54:30.873Z,16.76
2019-05-30T23:57:01.088Z,16.77
2019-05-30T23:59:31.243Z,16.76
